sensor_id;sensor_type;location;lat;lon;timestamp;P1;durP1;ratioP1;P2;durP2;ratioP2
43014;SDS011;28637;50.554;7.032;2023-09-08T00:04:39;4.97;;;3.57;;
43014;SDS011;28637;50.554;7.032;2023-09-08T00:09:40;5.30;;;3.47;;
43014;SDS011;28637;50.554;7.032;2023-09-08T00:14:40;5.20;;;3.50;;
43014;SDS011;28637;50.554;7.032;2023-09-08T00:19:41;5.47;;;3.30;;
43014;SDS011;28637;50.554;7.032;2023-09-08T00:24:42;4.63;;;3.63;;
43014;SDS011;28637;50.554;7.032;2023-09-08T00:29:43;4.37;;;3.73;;
43014;SDS011;28637;50.554;7.032;2023-09-08T00:34:43;4.40;;;3.60;;
43014;SDS011;28637;50.554;7.032;2023-09-08T00:39:44;4.07;;;3.50;;
43014;SDS011;28637;50.554;7.032;2023-09-08T00:44:45;4.00;;;3.60;;
43014;SDS011;28637;50.554;7.032;2023-09-08T00:49:45;5.60;;;3.87;;
43014;SDS011;28637;50.554;7.032;2023-09-08T00:54:46;5.03;;;3.73;;
43014;SDS011;28637;50.554;7.032;2023-09-08T00:59:47;4.30;;;3.83;;
43014;SDS011;28637;50.554;7.032;2023-09-08T01:04:48;4.70;;;3.72;;
43014;SDS011;28637;50.554;7.032;2023-09-08T01:09:50;4.85;;;4.20;;
43014;SDS011;28637;50.554;7.032;2023-09-08T01:14:50;6.93;;;3.93;;
43014;SDS011;28637;50.554;7.032;2023-09-08T01:19:52;4.97;;;4.13;;
43014;SDS011;28637;50.554;7.032;2023-09-08T01:30:06;6.53;;;3.90;;
43014;SDS011;28637;50.554;7.032;2023-09-08T01:35:08;4.43;;;3.63;;
43014;SDS011;28637;50.554;7.032;2023-09-08T01:40:10;4.35;;;3.88;;
43014;SDS011;28637;50.554;7.032;2023-09-08T01:45:11;4.97;;;4.22;;
43014;SDS011;28637;50.554;7.032;2023-09-08T01:50:11;3.97;;;3.57;;
43014;SDS011;28637;50.554;7.032;2023-09-08T01:55:12;4.93;;;3.93;;
43014;SDS011;28637;50.554;7.032;2023-09-08T02:00:13;6.63;;;3.90;;
43014;SDS011;28637;50.554;7.032;2023-09-08T02:05:14;5.43;;;4.03;;
43014;SDS011;28637;50.554;7.032;2023-09-08T02:10:15;5.07;;;3.80;;
43014;SDS011;28637;50.554;7.032;2023-09-08T02:15:16;4.80;;;3.70;;
43014;SDS011;28637;50.554;7.032;2023-09-08T02:20:17;4.20;;;3.80;;
43014;SDS011;28637;50.554;7.032;2023-09-08T02:25:18;5.33;;;4.20;;
43014;SDS011;28637;50.554;7.032;2023-09-08T02:30:18;5.73;;;3.93;;
43014;SDS011;28637;50.554;7.032;2023-09-08T02:35:19;5.57;;;4.27;;
43014;SDS011;28637;50.554;7.032;2023-09-08T02:40:20;5.63;;;4.57;;
43014;SDS011;28637;50.554;7.032;2023-09-08T02:45:21;5.13;;;4.30;;
43014;SDS011;28637;50.554;7.032;2023-09-08T02:50:22;6.73;;;4.23;;
43014;SDS011;28637;50.554;7.032;2023-09-08T02:55:22;6.63;;;4.23;;
43014;SDS011;28637;50.554;7.032;2023-09-08T03:00:24;5.97;;;4.00;;
43014;SDS011;28637;50.554;7.032;2023-09-08T03:05:25;5.60;;;4.38;;
43014;SDS011;28637;50.554;7.032;2023-09-08T03:10:25;5.33;;;4.30;;
43014;SDS011;28637;50.554;7.032;2023-09-08T03:15:28;6.47;;;4.40;;
43014;SDS011;28637;50.554;7.032;2023-09-08T03:20:29;4.93;;;4.40;;
43014;SDS011;28637;50.554;7.032;2023-09-08T03:25:30;5.40;;;4.70;;
43014;SDS011;28637;50.554;7.032;2023-09-08T03:30:30;6.43;;;4.50;;
43014;SDS011;28637;50.554;7.032;2023-09-08T03:35:31;6.47;;;5.10;;
43014;SDS011;28637;50.554;7.032;2023-09-08T03:40:32;5.90;;;4.70;;
43014;SDS011;28637;50.554;7.032;2023-09-08T03:45:32;7.50;;;4.70;;
43014;SDS011;28637;50.554;7.032;2023-09-08T03:50:34;5.13;;;4.43;;
43014;SDS011;28637;50.554;7.032;2023-09-08T03:55:35;5.85;;;4.32;;
43014;SDS011;28637;50.554;7.032;2023-09-08T04:00:35;9.10;;;4.30;;
43014;SDS011;28637;50.554;7.032;2023-09-08T04:05:36;5.78;;;4.40;;
43014;SDS011;28637;50.554;7.032;2023-09-08T04:10:37;5.13;;;4.23;;
43014;SDS011;28637;50.554;7.032;2023-09-08T04:15:38;5.93;;;4.50;;
43014;SDS011;28637;50.554;7.032;2023-09-08T04:20:39;5.13;;;4.33;;
43014;SDS011;28637;50.554;7.032;2023-09-08T04:25:39;5.63;;;4.20;;
43014;SDS011;28637;50.554;7.032;2023-09-08T04:30:40;7.20;;;3.83;;
43014;SDS011;28637;50.554;7.032;2023-09-08T04:35:41;4.63;;;3.90;;
43014;SDS011;28637;50.554;7.032;2023-09-08T04:40:41;4.83;;;3.90;;
43014;SDS011;28637;50.554;7.032;2023-09-08T04:45:45;5.80;;;4.45;;
43014;SDS011;28637;50.554;7.032;2023-09-08T04:50:45;7.33;;;4.17;;
43014;SDS011;28637;50.554;7.032;2023-09-08T04:55:46;4.97;;;4.07;;
43014;SDS011;28637;50.554;7.032;2023-09-08T05:00:47;5.03;;;4.20;;
43014;SDS011;28637;50.554;7.032;2023-09-08T05:05:47;6.40;;;4.67;;
43014;SDS011;28637;50.554;7.032;2023-09-08T05:10:48;5.60;;;4.57;;
43014;SDS011;28637;50.554;7.032;2023-09-08T05:15:49;9.77;;;4.80;;
43014;SDS011;28637;50.554;7.032;2023-09-08T05:20:50;6.13;;;4.60;;
43014;SDS011;28637;50.554;7.032;2023-09-08T05:25:50;8.70;;;4.87;;
43014;SDS011;28637;50.554;7.032;2023-09-08T05:30:51;6.87;;;4.60;;
43014;SDS011;28637;50.554;7.032;2023-09-08T05:40:53;4.75;;;4.05;;
43014;SDS011;28637;50.554;7.032;2023-09-08T05:45:54;7.10;;;4.83;;
43014;SDS011;28637;50.554;7.032;2023-09-08T05:50:55;5.83;;;4.50;;
43014;SDS011;28637;50.554;7.032;2023-09-08T05:55:56;5.37;;;4.40;;
43014;SDS011;28637;50.554;7.032;2023-09-08T06:00:57;7.03;;;4.47;;
43014;SDS011;28637;50.554;7.032;2023-09-08T06:05:57;5.70;;;4.50;;
43014;SDS011;28637;50.554;7.032;2023-09-08T06:10:58;7.07;;;4.37;;
43014;SDS011;28637;50.554;7.032;2023-09-08T06:15:59;6.30;;;4.47;;
43014;SDS011;28637;50.554;7.032;2023-09-08T06:20:59;5.87;;;4.87;;
43014;SDS011;28637;50.554;7.032;2023-09-08T06:26:00;4.70;;;4.20;;
43014;SDS011;28637;50.554;7.032;2023-09-08T06:31:01;5.07;;;4.43;;
43014;SDS011;28637;50.554;7.032;2023-09-08T06:36:02;5.87;;;4.27;;
43014;SDS011;28637;50.554;7.032;2023-09-08T06:41:10;7.90;;;4.13;;
43014;SDS011;28637;50.554;7.032;2023-09-08T06:46:11;5.35;;;4.38;;
43014;SDS011;28637;50.554;7.032;2023-09-08T06:51:12;6.17;;;4.30;;
43014;SDS011;28637;50.554;7.032;2023-09-08T06:56:12;7.10;;;4.67;;
43014;SDS011;28637;50.554;7.032;2023-09-08T07:01:13;5.43;;;4.37;;
43014;SDS011;28637;50.554;7.032;2023-09-08T07:06:15;4.53;;;3.85;;
43014;SDS011;28637;50.554;7.032;2023-09-08T07:11:17;6.13;;;4.53;;
43014;SDS011;28637;50.554;7.032;2023-09-08T07:16:18;6.60;;;4.88;;
43014;SDS011;28637;50.554;7.032;2023-09-08T07:21:18;5.57;;;4.23;;
43014;SDS011;28637;50.554;7.032;2023-09-08T07:26:19;4.43;;;3.95;;
43014;SDS011;28637;50.554;7.032;2023-09-08T07:31:21;6.05;;;4.05;;
43014;SDS011;28637;50.554;7.032;2023-09-08T07:36:22;5.60;;;4.20;;
43014;SDS011;28637;50.554;7.032;2023-09-08T07:41:22;7.37;;;4.40;;
43014;SDS011;28637;50.554;7.032;2023-09-08T07:46:23;5.90;;;4.15;;
43014;SDS011;28637;50.554;7.032;2023-09-08T07:51:24;5.50;;;4.00;;
43014;SDS011;28637;50.554;7.032;2023-09-08T07:56:26;4.30;;;3.78;;
43014;SDS011;28637;50.554;7.032;2023-09-08T08:01:26;5.10;;;3.90;;
43014;SDS011;28637;50.554;7.032;2023-09-08T08:06:27;4.80;;;4.10;;
43014;SDS011;28637;50.554;7.032;2023-09-08T08:11:28;5.30;;;4.38;;
43014;SDS011;28637;50.554;7.032;2023-09-08T08:16:29;6.88;;;4.10;;
43014;SDS011;28637;50.554;7.032;2023-09-08T08:21:30;5.18;;;4.03;;
43014;SDS011;28637;50.554;7.032;2023-09-08T08:26:30;4.13;;;3.72;;
43014;SDS011;28637;50.554;7.032;2023-09-08T08:31:33;5.63;;;3.75;;
43014;SDS011;28637;50.554;7.032;2023-09-08T08:36:34;9.10;;;3.78;;
43014;SDS011;28637;50.554;7.032;2023-09-08T08:41:35;4.15;;;3.67;;
43014;SDS011;28637;50.554;7.032;2023-09-08T08:46:39;5.90;;;3.90;;
43014;SDS011;28637;50.554;7.032;2023-09-08T08:51:44;5.68;;;3.80;;
43014;SDS011;28637;50.554;7.032;2023-09-08T08:56:46;4.13;;;3.72;;
43014;SDS011;28637;50.554;7.032;2023-09-08T09:01:46;4.05;;;3.65;;
43014;SDS011;28637;50.554;7.032;2023-09-08T09:06:48;5.97;;;3.83;;
43014;SDS011;28637;50.554;7.032;2023-09-08T09:11:50;6.00;;;4.22;;
43014;SDS011;28637;50.554;7.032;2023-09-08T09:16:51;6.00;;;4.20;;
43014;SDS011;28637;50.554;7.032;2023-09-08T09:21:58;4.38;;;3.67;;
43014;SDS011;28637;50.554;7.032;2023-09-08T09:27:02;4.53;;;3.58;;
43014;SDS011;28637;50.554;7.032;2023-09-08T09:32:06;4.90;;;3.80;;
43014;SDS011;28637;50.554;7.032;2023-09-08T09:37:10;10.13;;;4.45;;
43014;SDS011;28637;50.554;7.032;2023-09-08T09:42:10;5.57;;;3.42;;
43014;SDS011;28637;50.554;7.032;2023-09-08T09:47:11;7.97;;;3.75;;
43014;SDS011;28637;50.554;7.032;2023-09-08T09:52:20;3.80;;;3.50;;
43014;SDS011;28637;50.554;7.032;2023-09-08T09:57:31;7.28;;;3.80;;
43014;SDS011;28637;50.554;7.032;2023-09-08T10:02:33;6.50;;;3.97;;
43014;SDS011;28637;50.554;7.032;2023-09-08T10:07:34;6.43;;;4.00;;
43014;SDS011;28637;50.554;7.032;2023-09-08T10:12:35;4.50;;;4.00;;
43014;SDS011;28637;50.554;7.032;2023-09-08T10:17:40;4.82;;;3.38;;
43014;SDS011;28637;50.554;7.032;2023-09-08T10:34:36;5.53;;;3.50;;
43014;SDS011;28637;50.554;7.032;2023-09-08T10:39:38;4.30;;;3.65;;
43014;SDS011;28637;50.554;7.032;2023-09-08T10:44:40;6.15;;;3.60;;
43014;SDS011;28637;50.554;7.032;2023-09-08T10:49:40;4.05;;;3.45;;
43014;SDS011;28637;50.554;7.032;2023-09-08T10:54:42;4.60;;;3.28;;
43014;SDS011;28637;50.554;7.032;2023-09-08T11:04:57;7.03;;;3.60;;
43014;SDS011;28637;50.554;7.032;2023-09-08T11:09:59;5.10;;;3.67;;
43014;SDS011;28637;50.554;7.032;2023-09-08T11:15:01;5.07;;;3.83;;
43014;SDS011;28637;50.554;7.032;2023-09-08T11:20:08;5.13;;;3.95;;
43014;SDS011;28637;50.554;7.032;2023-09-08T11:25:10;4.35;;;3.45;;
43014;SDS011;28637;50.554;7.032;2023-09-08T11:30:11;6.45;;;3.45;;
43014;SDS011;28637;50.554;7.032;2023-09-08T11:35:13;6.00;;;3.60;;
43014;SDS011;28637;50.554;7.032;2023-09-08T11:40:15;5.75;;;3.72;;
43014;SDS011;28637;50.554;7.032;2023-09-08T11:45:16;9.35;;;3.90;;
43014;SDS011;28637;50.554;7.032;2023-09-08T11:50:20;3.60;;;3.30;;
43014;SDS011;28637;50.554;7.032;2023-09-08T11:55:21;6.63;;;3.50;;
43014;SDS011;28637;50.554;7.032;2023-09-08T12:00:23;5.85;;;3.47;;
43014;SDS011;28637;50.554;7.032;2023-09-08T12:05:26;5.00;;;3.70;;
43014;SDS011;28637;50.554;7.032;2023-09-08T12:10:27;6.57;;;3.70;;
43014;SDS011;28637;50.554;7.032;2023-09-08T12:15:32;5.30;;;3.65;;
43014;SDS011;28637;50.554;7.032;2023-09-08T12:20:34;4.15;;;3.47;;
43014;SDS011;28637;50.554;7.032;2023-09-08T12:25:44;7.50;;;3.78;;
43014;SDS011;28637;50.554;7.032;2023-09-08T12:30:45;5.37;;;3.73;;
43014;SDS011;28637;50.554;7.032;2023-09-08T12:35:47;4.78;;;3.50;;
43014;SDS011;28637;50.554;7.032;2023-09-08T12:40:52;4.97;;;3.80;;
43014;SDS011;28637;50.554;7.032;2023-09-08T12:45:54;6.60;;;3.55;;
43014;SDS011;28637;50.554;7.032;2023-09-08T12:50:56;7.78;;;4.00;;
43014;SDS011;28637;50.554;7.032;2023-09-08T12:55:56;4.72;;;3.63;;
43014;SDS011;28637;50.554;7.032;2023-09-08T13:00:57;5.32;;;3.60;;
43014;SDS011;28637;50.554;7.032;2023-09-08T13:05:57;4.53;;;3.60;;
43014;SDS011;28637;50.554;7.032;2023-09-08T13:10:58;5.88;;;3.53;;
43014;SDS011;28637;50.554;7.032;2023-09-08T13:15:59;4.63;;;3.42;;
43014;SDS011;28637;50.554;7.032;2023-09-08T13:20:59;6.40;;;3.63;;
43014;SDS011;28637;50.554;7.032;2023-09-08T13:26:00;7.93;;;3.42;;
43014;SDS011;28637;50.554;7.032;2023-09-08T13:31:01;9.48;;;3.38;;
43014;SDS011;28637;50.554;7.032;2023-09-08T13:36:02;3.80;;;3.22;;
43014;SDS011;28637;50.554;7.032;2023-09-08T13:41:03;5.15;;;3.58;;
43014;SDS011;28637;50.554;7.032;2023-09-08T13:46:03;5.10;;;3.13;;
43014;SDS011;28637;50.554;7.032;2023-09-08T13:51:04;5.63;;;3.28;;
43014;SDS011;28637;50.554;7.032;2023-09-08T13:56:05;4.28;;;3.22;;
43014;SDS011;28637;50.554;7.032;2023-09-08T14:01:05;9.93;;;3.40;;
43014;SDS011;28637;50.554;7.032;2023-09-08T14:06:06;5.05;;;3.50;;
43014;SDS011;28637;50.554;7.032;2023-09-08T14:11:07;5.43;;;3.28;;
43014;SDS011;28637;50.554;7.032;2023-09-08T14:16:07;7.35;;;3.20;;
43014;SDS011;28637;50.554;7.032;2023-09-08T14:21:08;5.57;;;3.28;;
43014;SDS011;28637;50.554;7.032;2023-09-08T14:26:09;4.35;;;3.13;;
43014;SDS011;28637;50.554;7.032;2023-09-08T14:31:09;4.60;;;3.20;;
43014;SDS011;28637;50.554;7.032;2023-09-08T14:36:10;4.68;;;3.00;;
43014;SDS011;28637;50.554;7.032;2023-09-08T14:41:11;7.00;;;3.45;;
43014;SDS011;28637;50.554;7.032;2023-09-08T14:46:11;5.57;;;3.20;;
43014;SDS011;28637;50.554;7.032;2023-09-08T14:51:12;5.65;;;3.10;;
43014;SDS011;28637;50.554;7.032;2023-09-08T14:56:13;3.08;;;2.88;;
43014;SDS011;28637;50.554;7.032;2023-09-08T15:01:14;5.55;;;3.10;;
43014;SDS011;28637;50.554;7.032;2023-09-08T15:06:14;4.05;;;3.13;;
43014;SDS011;28637;50.554;7.032;2023-09-08T15:11:15;6.28;;;3.17;;
43014;SDS011;28637;50.554;7.032;2023-09-08T15:16:16;4.60;;;3.17;;
43014;SDS011;28637;50.554;7.032;2023-09-08T15:21:17;6.85;;;3.40;;
43014;SDS011;28637;50.554;7.032;2023-09-08T15:26:18;4.25;;;2.92;;
43014;SDS011;28637;50.554;7.032;2023-09-08T15:31:19;3.40;;;2.85;;
43014;SDS011;28637;50.554;7.032;2023-09-08T15:36:20;4.57;;;2.88;;
43014;SDS011;28637;50.554;7.032;2023-09-08T15:41:20;6.18;;;3.28;;
43014;SDS011;28637;50.554;7.032;2023-09-08T15:46:22;5.85;;;3.10;;
43014;SDS011;28637;50.554;7.032;2023-09-08T15:51:23;4.72;;;2.88;;
43014;SDS011;28637;50.554;7.032;2023-09-08T15:56:24;2.88;;;2.65;;
43014;SDS011;28637;50.554;7.032;2023-09-08T16:01:24;6.32;;;3.00;;
43014;SDS011;28637;50.554;7.032;2023-09-08T16:06:25;3.97;;;2.58;;
43014;SDS011;28637;50.554;7.032;2023-09-08T16:11:26;5.13;;;2.58;;
43014;SDS011;28637;50.554;7.032;2023-09-08T16:16:26;4.53;;;2.70;;
43014;SDS011;28637;50.554;7.032;2023-09-08T16:21:27;4.00;;;2.58;;
43014;SDS011;28637;50.554;7.032;2023-09-08T16:26:28;3.58;;;2.80;;
43014;SDS011;28637;50.554;7.032;2023-09-08T16:31:28;3.45;;;2.47;;
43014;SDS011;28637;50.554;7.032;2023-09-08T16:36:29;5.70;;;3.00;;
43014;SDS011;28637;50.554;7.032;2023-09-08T16:41:29;5.70;;;2.90;;
43014;SDS011;28637;50.554;7.032;2023-09-08T16:46:30;3.95;;;2.75;;
43014;SDS011;28637;50.554;7.032;2023-09-08T16:51:31;4.18;;;2.90;;
43014;SDS011;28637;50.554;7.032;2023-09-08T16:56:32;3.42;;;2.83;;
43014;SDS011;28637;50.554;7.032;2023-09-08T17:01:32;3.20;;;2.90;;
43014;SDS011;28637;50.554;7.032;2023-09-08T17:06:33;4.80;;;2.85;;
43014;SDS011;28637;50.554;7.032;2023-09-08T17:11:34;4.03;;;2.88;;
43014;SDS011;28637;50.554;7.032;2023-09-08T17:16:38;3.58;;;3.08;;
43014;SDS011;28637;50.554;7.032;2023-09-08T17:21:39;5.28;;;3.00;;
43014;SDS011;28637;50.554;7.032;2023-09-08T17:26:39;4.90;;;3.10;;
43014;SDS011;28637;50.554;7.032;2023-09-08T17:31:40;3.10;;;2.80;;
43014;SDS011;28637;50.554;7.032;2023-09-08T17:36:40;3.50;;;3.20;;
43014;SDS011;28637;50.554;7.032;2023-09-08T17:41:41;4.03;;;2.95;;
43014;SDS011;28637;50.554;7.032;2023-09-08T17:46:42;5.05;;;3.25;;
43014;SDS011;28637;50.554;7.032;2023-09-08T17:51:42;5.03;;;3.10;;
43014;SDS011;28637;50.554;7.032;2023-09-08T17:56:43;6.10;;;3.45;;
43014;SDS011;28637;50.554;7.032;2023-09-08T18:01:44;4.25;;;3.20;;
43014;SDS011;28637;50.554;7.032;2023-09-08T18:06:44;8.75;;;3.38;;
43014;SDS011;28637;50.554;7.032;2023-09-08T18:11:45;5.95;;;3.30;;
43014;SDS011;28637;50.554;7.032;2023-09-08T18:16:46;13.38;;;3.55;;
43014;SDS011;28637;50.554;7.032;2023-09-08T18:21:47;16.75;;;4.20;;
43014;SDS011;28637;50.554;7.032;2023-09-08T18:31:48;12.93;;;3.77;;
43014;SDS011;28637;50.554;7.032;2023-09-08T18:36:49;8.30;;;3.35;;
43014;SDS011;28637;50.554;7.032;2023-09-08T18:41:50;5.20;;;3.45;;
43014;SDS011;28637;50.554;7.032;2023-09-08T18:46:51;3.85;;;3.28;;
43014;SDS011;28637;50.554;7.032;2023-09-08T18:51:52;5.85;;;3.72;;
43014;SDS011;28637;50.554;7.032;2023-09-08T18:56:52;6.35;;;3.88;;
43014;SDS011;28637;50.554;7.032;2023-09-08T19:01:53;5.07;;;3.80;;
43014;SDS011;28637;50.554;7.032;2023-09-08T19:06:55;4.90;;;3.78;;
43014;SDS011;28637;50.554;7.032;2023-09-08T19:11:56;8.02;;;3.70;;
43014;SDS011;28637;50.554;7.032;2023-09-08T19:16:56;6.63;;;3.83;;
43014;SDS011;28637;50.554;7.032;2023-09-08T19:21:57;5.13;;;3.70;;
43014;SDS011;28637;50.554;7.032;2023-09-08T19:26:58;5.83;;;3.73;;
43014;SDS011;28637;50.554;7.032;2023-09-08T19:31:59;4.72;;;3.60;;
43014;SDS011;28637;50.554;7.032;2023-09-08T19:37:00;6.57;;;3.57;;
43014;SDS011;28637;50.554;7.032;2023-09-08T19:42:00;5.93;;;3.60;;
43014;SDS011;28637;50.554;7.032;2023-09-08T19:47:01;5.00;;;3.80;;
43014;SDS011;28637;50.554;7.032;2023-09-08T19:52:10;4.65;;;3.60;;
43014;SDS011;28637;50.554;7.032;2023-09-08T19:57:19;10.07;;;3.70;;
43014;SDS011;28637;50.554;7.032;2023-09-08T20:02:24;3.85;;;3.45;;
43014;SDS011;28637;50.554;7.032;2023-09-08T20:07:24;9.73;;;3.85;;
43014;SDS011;28637;50.554;7.032;2023-09-08T20:12:25;4.63;;;3.90;;
43014;SDS011;28637;50.554;7.032;2023-09-08T20:17:26;4.20;;;3.73;;
43014;SDS011;28637;50.554;7.032;2023-09-08T20:22:27;5.33;;;3.40;;
43014;SDS011;28637;50.554;7.032;2023-09-08T20:27:28;4.93;;;3.67;;
43014;SDS011;28637;50.554;7.032;2023-09-08T20:32:29;4.70;;;3.53;;
43014;SDS011;28637;50.554;7.032;2023-09-08T20:37:30;4.73;;;3.50;;
43014;SDS011;28637;50.554;7.032;2023-09-08T20:42:30;4.00;;;3.60;;
43014;SDS011;28637;50.554;7.032;2023-09-08T20:47:31;5.00;;;3.67;;
43014;SDS011;28637;50.554;7.032;2023-09-08T20:52:32;4.85;;;3.60;;
43014;SDS011;28637;50.554;7.032;2023-09-08T20:57:32;4.57;;;3.80;;
43014;SDS011;28637;50.554;7.032;2023-09-08T21:02:33;4.83;;;3.70;;
43014;SDS011;28637;50.554;7.032;2023-09-08T21:07:34;5.03;;;3.83;;
43014;SDS011;28637;50.554;7.032;2023-09-08T21:12:34;5.17;;;3.87;;
43014;SDS011;28637;50.554;7.032;2023-09-08T21:17:35;5.27;;;3.77;;
43014;SDS011;28637;50.554;7.032;2023-09-08T21:22:35;4.80;;;3.80;;
43014;SDS011;28637;50.554;7.032;2023-09-08T21:27:36;4.70;;;3.90;;
43014;SDS011;28637;50.554;7.032;2023-09-08T21:32:37;4.90;;;3.70;;
43014;SDS011;28637;50.554;7.032;2023-09-08T21:37:41;6.22;;;3.75;;
43014;SDS011;28637;50.554;7.032;2023-09-08T21:42:42;4.25;;;3.70;;
43014;SDS011;28637;50.554;7.032;2023-09-08T21:47:43;5.17;;;3.97;;
43014;SDS011;28637;50.554;7.032;2023-09-08T21:52:46;5.22;;;3.78;;
43014;SDS011;28637;50.554;7.032;2023-09-08T21:57:47;4.50;;;3.80;;
43014;SDS011;28637;50.554;7.032;2023-09-08T22:02:48;5.33;;;3.93;;
43014;SDS011;28637;50.554;7.032;2023-09-08T22:07:48;4.30;;;3.60;;
43014;SDS011;28637;50.554;7.032;2023-09-08T22:12:49;7.60;;;4.07;;
43014;SDS011;28637;50.554;7.032;2023-09-08T22:17:50;5.43;;;4.40;;
43014;SDS011;28637;50.554;7.032;2023-09-08T22:22:51;5.43;;;4.20;;
43014;SDS011;28637;50.554;7.032;2023-09-08T22:27:51;5.20;;;4.13;;
43014;SDS011;28637;50.554;7.032;2023-09-08T22:32:55;5.78;;;4.30;;
43014;SDS011;28637;50.554;7.032;2023-09-08T22:37:55;5.77;;;4.73;;
43014;SDS011;28637;50.554;7.032;2023-09-08T22:42:56;8.27;;;4.43;;
43014;SDS011;28637;50.554;7.032;2023-09-08T22:47:56;6.20;;;4.50;;
43014;SDS011;28637;50.554;7.032;2023-09-08T22:52:57;6.60;;;4.30;;
43014;SDS011;28637;50.554;7.032;2023-09-08T22:57:58;6.40;;;4.40;;
43014;SDS011;28637;50.554;7.032;2023-09-08T23:02:58;5.20;;;4.50;;
43014;SDS011;28637;50.554;7.032;2023-09-08T23:07:59;5.13;;;4.30;;
43014;SDS011;28637;50.554;7.032;2023-09-08T23:13:00;4.80;;;4.27;;
43014;SDS011;28637;50.554;7.032;2023-09-08T23:18:00;7.60;;;4.13;;
43014;SDS011;28637;50.554;7.032;2023-09-08T23:23:01;4.80;;;4.00;;
43014;SDS011;28637;50.554;7.032;2023-09-08T23:28:02;4.80;;;4.33;;
43014;SDS011;28637;50.554;7.032;2023-09-08T23:33:03;4.45;;;4.00;;
43014;SDS011;28637;50.554;7.032;2023-09-08T23:38:04;6.03;;;4.15;;
43014;SDS011;28637;50.554;7.032;2023-09-08T23:43:05;5.20;;;4.70;;
43014;SDS011;28637;50.554;7.032;2023-09-08T23:48:05;6.13;;;4.40;;
43014;SDS011;28637;50.554;7.032;2023-09-08T23:53:06;4.73;;;4.13;;
43014;SDS011;28637;50.554;7.032;2023-09-08T23:58:07;5.93;;;4.63;;
